createdAt,value
2018-03-01T00:00:08.860Z,34.70
2018-03-01T00:02:35.520Z,34.60
2018-03-01T00:05:02.184Z,34.80
2018-03-01T00:07:28.797Z,34.70
2018-03-01T00:09:55.426Z,34.90
2018-03-01T00:12:22.073Z,34.70
2018-03-01T00:14:48.705Z,34.60
2018-03-01T00:17:15.313Z,34.00
2018-03-01T00:19:41.929Z,34.40
2018-03-01T00:22:08.979Z,33.40
2018-03-01T00:24:36.016Z,33.40
2018-03-01T00:27:02.650Z,33.60
2018-03-01T00:29:29.272Z,33.20
2018-03-01T00:31:55.923Z,32.60
2018-03-01T00:34:22.534Z,32.80
2018-03-01T00:36:49.172Z,32.70
2018-03-01T00:39:15.789Z,32.50
2018-03-01T00:44:21.029Z,33.00
2018-03-01T00:46:47.650Z,32.40
2018-03-01T00:49:14.263Z,33.10
2018-03-01T00:51:40.876Z,33.00
2018-03-01T00:54:07.520Z,33.30
2018-03-01T00:56:34.167Z,34.00
2018-03-01T00:59:00.797Z,34.00
2018-03-01T01:01:27.447Z,33.90
2018-03-01T01:03:54.066Z,34.10
2018-03-01T01:06:20.708Z,34.20
2018-03-01T01:08:47.329Z,34.30
2018-03-01T01:11:13.940Z,34.30
2018-03-01T01:13:40.559Z,34.40
2018-03-01T01:16:07.185Z,34.40
2018-03-01T01:18:33.828Z,34.40
2018-03-01T01:21:00.451Z,34.50
2018-03-01T01:23:27.482Z,34.50
2018-03-01T01:25:54.104Z,34.40
2018-03-01T01:28:20.733Z,34.50
2018-03-01T01:30:47.373Z,34.50
2018-03-01T01:33:14.394Z,34.40
2018-03-01T01:35:41.007Z,34.50
2018-03-01T01:38:07.630Z,34.50
2018-03-01T01:40:35.010Z,34.40
2018-03-01T01:43:01.631Z,34.20
2018-03-01T01:45:28.255Z,33.70
2018-03-01T01:47:54.888Z,33.40
2018-03-01T01:50:21.506Z,33.60
2018-03-01T01:52:48.148Z,32.70
2018-03-01T01:55:14.777Z,32.80
2018-03-01T01:57:41.420Z,32.60
2018-03-01T02:00:08.038Z,32.50
2018-03-01T02:02:34.657Z,32.60
2018-03-01T02:05:01.683Z,33.00
2018-03-01T02:07:28.307Z,33.20
2018-03-01T02:09:54.999Z,32.60
2018-03-01T02:12:21.609Z,32.00
2018-03-01T02:14:48.242Z,32.50
2018-03-01T02:17:17.743Z,32.10
2018-03-01T02:19:44.412Z,32.60
2018-03-01T02:22:11.025Z,33.70
2018-03-01T02:24:37.663Z,33.70
2018-03-01T02:27:04.281Z,33.70
2018-03-01T02:29:30.922Z,33.90
2018-03-01T02:31:58.312Z,34.00
2018-03-01T02:34:25.347Z,34.10
2018-03-01T02:36:51.982Z,34.10
2018-03-01T02:39:18.641Z,34.20
2018-03-01T02:41:45.268Z,34.20
2018-03-01T02:44:11.883Z,34.40
2018-03-01T02:46:38.534Z,34.30
2018-03-01T02:49:05.149Z,34.30
2018-03-01T02:51:32.527Z,34.30
2018-03-01T02:53:59.154Z,34.30
2018-03-01T02:56:25.788Z,34.30
2018-03-01T02:58:52.438Z,34.20
2018-03-01T03:01:19.060Z,34.40
2018-03-01T03:03:46.080Z,34.30
2018-03-01T03:06:12.705Z,34.30
2018-03-01T03:08:39.323Z,33.70
2018-03-01T03:11:06.006Z,33.70
2018-03-01T03:13:32.693Z,33.40
2018-03-01T03:15:59.306Z,32.70
2018-03-01T03:18:25.913Z,33.00
2018-03-01T03:20:52.537Z,32.60
2018-03-01T03:23:19.209Z,32.60
2018-03-01T03:25:45.874Z,32.30
2018-03-01T03:28:12.514Z,32.20
2018-03-01T03:30:39.140Z,32.60
2018-03-01T03:33:05.778Z,32.20
2018-03-01T03:35:32.437Z,32.00
2018-03-01T03:37:59.102Z,32.10
2018-03-01T03:40:25.730Z,31.90
2018-03-01T03:42:52.414Z,32.40
2018-03-01T03:45:19.033Z,33.40
2018-03-01T03:47:45.654Z,33.40
2018-03-01T03:50:12.357Z,33.50
2018-03-01T03:52:38.978Z,33.70
2018-03-01T03:55:06.027Z,33.80
2018-03-01T03:57:32.661Z,33.90
2018-03-01T03:59:59.312Z,34.10
2018-03-01T04:02:25.931Z,34.00
2018-03-01T04:04:52.575Z,34.00
2018-03-01T04:07:19.198Z,34.20
2018-03-01T04:09:45.829Z,34.10
2018-03-01T04:12:12.444Z,34.10
2018-03-01T04:14:39.085Z,34.30
2018-03-01T04:17:05.702Z,34.30
2018-03-01T04:19:32.327Z,34.20
2018-03-01T04:21:58.941Z,34.30
2018-03-01T04:24:25.956Z,34.30
2018-03-01T04:26:52.627Z,34.20
2018-03-01T04:29:19.246Z,34.10
2018-03-01T04:31:45.900Z,33.90
2018-03-01T04:35:51.498Z,33.70
2018-03-01T04:38:18.114Z,33.60
2018-03-01T04:40:45.529Z,32.80
2018-03-01T04:43:12.539Z,32.50
2018-03-01T04:45:39.933Z,32.40
2018-03-01T04:48:06.546Z,32.10
2018-03-01T04:50:33.946Z,31.80
2018-03-01T04:53:00.574Z,32.10
2018-03-01T04:55:27.962Z,32.10
2018-03-01T04:57:55.014Z,31.80
2018-03-01T05:00:21.635Z,31.50
2018-03-01T05:05:25.102Z,33.30
2018-03-01T05:07:51.726Z,33.50
2018-03-01T05:10:18.776Z,33.50
2018-03-01T05:12:45.794Z,33.50
2018-03-01T05:15:13.174Z,33.50
2018-03-01T05:17:40.193Z,33.60
2018-03-01T05:20:06.810Z,33.70
2018-03-01T05:22:33.429Z,33.80
2018-03-01T05:25:38.057Z,33.70
2018-03-01T05:28:05.138Z,33.80
2018-03-01T05:30:31.909Z,33.80
2018-03-01T05:32:59.315Z,33.80
2018-03-01T05:37:26.229Z,33.80
2018-03-01T05:39:53.287Z,33.30
2018-03-01T05:42:19.928Z,33.60
2018-03-01T05:44:46.981Z,33.10
2018-03-01T05:47:14.015Z,32.90
2018-03-01T05:51:09.615Z,32.80
2018-03-01T05:53:36.745Z,32.10
2018-03-01T05:56:08.702Z,32.00
2018-03-01T05:58:35.769Z,32.30
2018-03-01T06:01:02.803Z,32.00
2018-03-01T06:03:29.474Z,32.30
2018-03-01T06:08:45.342Z,31.80
2018-03-01T06:11:12.094Z,32.90
2018-03-01T06:13:39.124Z,33.30
2018-03-01T06:16:06.648Z,33.30
2018-03-01T06:18:33.753Z,33.40
2018-03-01T06:21:00.434Z,33.40
2018-03-01T06:23:32.850Z,33.50
2018-03-01T06:25:59.942Z,33.40
2018-03-01T06:28:26.990Z,33.60
2018-03-01T06:43:44.113Z,33.60
2018-03-01T06:46:10.813Z,33.70
2018-03-01T06:48:37.975Z,33.40
2018-03-01T06:51:04.625Z,33.20
2018-03-01T06:53:31.668Z,32.70
2018-03-01T06:55:58.321Z,32.80
2018-03-01T06:58:26.788Z,32.70
2018-03-01T07:00:53.447Z,32.60
2018-03-01T07:03:20.850Z,31.90
2018-03-01T07:05:47.505Z,31.80
2018-03-01T07:08:14.542Z,31.40
2018-03-01T07:10:42.312Z,31.40
2018-03-01T07:13:08.970Z,31.50
2018-03-01T07:18:04.382Z,31.30
2018-03-01T07:20:32.866Z,31.20
2018-03-01T07:22:59.941Z,33.00
2018-03-01T07:25:27.337Z,33.00
2018-03-01T07:27:54.801Z,33.10
2018-03-01T07:30:26.769Z,33.10
2018-03-01T07:35:21.872Z,33.30
2018-03-01T07:37:49.314Z,33.40
2018-03-01T07:40:16.358Z,33.40
2018-03-01T07:42:43.761Z,33.40
2018-03-01T07:45:10.469Z,33.50
2018-03-01T07:47:37.114Z,33.50
2018-03-01T07:50:08.927Z,33.40
2018-03-01T07:52:35.565Z,33.40
2018-03-01T07:55:02.196Z,33.50
2018-03-01T07:57:28.834Z,33.40
2018-03-01T07:59:55.887Z,33.30
2018-03-01T08:02:23.323Z,33.40
2018-03-01T08:04:50.737Z,33.40
2018-03-01T08:07:17.374Z,33.40
2018-03-01T08:09:44.421Z,33.30
2018-03-01T08:12:11.526Z,33.20
2018-03-01T08:14:44.907Z,33.20
2018-03-01T08:17:11.523Z,33.00
2018-03-01T08:19:38.570Z,33.10
2018-03-01T08:22:05.213Z,32.90
2018-03-01T08:24:32.254Z,32.70
2018-03-01T08:26:59.299Z,32.30
2018-03-01T08:29:32.361Z,32.30
2018-03-01T08:32:00.195Z,32.60
2018-03-01T08:34:26.867Z,31.90
2018-03-01T08:36:53.537Z,31.60
2018-03-01T08:39:20.630Z,31.30
2018-03-01T08:41:47.289Z,31.40
2018-03-01T08:44:14.327Z,31.80
2018-03-01T08:46:44.886Z,31.50
2018-03-01T08:49:11.538Z,31.60
2018-03-01T08:51:38.600Z,31.40
2018-03-01T08:54:05.238Z,30.80
2018-03-01T08:56:32.283Z,31.10
2018-03-01T08:58:59.360Z,31.70
2018-03-01T09:01:26.442Z,32.70
2018-03-01T09:03:53.071Z,32.90
2018-03-01T09:06:20.188Z,32.90
2018-03-01T09:08:47.255Z,33.00
2018-03-01T09:11:14.314Z,33.10
2018-03-01T09:13:41.379Z,33.10
2018-03-01T09:16:08.407Z,33.10
2018-03-01T09:18:35.060Z,33.20
2018-03-01T09:21:01.756Z,33.30
2018-03-01T09:23:28.432Z,33.30
2018-03-01T09:25:55.564Z,33.30
2018-03-01T09:29:28.444Z,33.20
2018-03-01T09:32:02.606Z,33.20
2018-03-01T09:34:29.260Z,33.30
2018-03-01T09:36:55.896Z,33.40
2018-03-01T09:42:11.711Z,33.30
2018-03-01T09:44:38.374Z,33.20
2018-03-01T09:47:05.091Z,33.30
2018-03-01T09:49:32.962Z,33.20
2018-03-01T10:52:43.067Z,33.20
2018-03-01T10:55:09.694Z,33.20
2018-03-01T10:57:36.331Z,33.20
2018-03-01T11:00:03.730Z,33.30
2018-03-01T11:02:30.364Z,33.30
2018-03-01T11:04:57.008Z,33.40
2018-03-01T11:07:24.457Z,33.20
2018-03-01T11:09:51.834Z,33.30
2018-03-01T11:12:18.869Z,33.30
2018-03-01T11:14:46.269Z,33.30
2018-03-01T11:17:13.293Z,33.00
2018-03-01T11:19:40.323Z,33.10
2018-03-01T11:22:07.765Z,33.30
2018-03-01T11:24:34.398Z,32.90
2018-03-01T11:27:01.429Z,32.30
2018-03-01T11:30:43.643Z,31.80
2018-03-01T11:33:10.404Z,32.00
2018-03-01T11:35:37.065Z,31.70
2018-03-01T11:38:04.312Z,31.70
2018-03-01T11:43:07.662Z,31.40
2018-03-01T11:45:34.712Z,31.70
2018-03-01T11:48:02.825Z,31.40
2018-03-01T11:50:48.253Z,31.20
2018-03-01T11:57:14.614Z,31.40
2018-03-01T11:59:41.261Z,31.50
2018-03-01T12:02:07.891Z,31.40
2018-03-01T12:04:34.567Z,32.70
2018-03-01T12:07:01.586Z,32.70
2018-03-01T12:09:28.607Z,32.70
2018-03-01T12:11:56.039Z,32.70
2018-03-01T12:14:22.679Z,32.80
2018-03-01T12:16:49.726Z,32.90
2018-03-01T12:19:16.348Z,33.00
2018-03-01T12:21:43.366Z,33.10
2018-03-01T12:24:10.388Z,33.10
2018-03-01T12:26:37.017Z,33.10
2018-03-01T12:29:04.066Z,33.00
2018-03-01T12:31:30.698Z,33.20
2018-03-01T12:33:57.714Z,33.10
2018-03-01T12:36:24.726Z,33.20
2018-03-01T12:38:51.738Z,33.10
2018-03-01T12:41:18.404Z,33.20
2018-03-01T12:43:45.028Z,33.20
2018-03-01T12:46:12.056Z,33.30
2018-03-01T12:48:39.114Z,33.20
2018-03-01T12:51:05.744Z,33.30
2018-03-01T12:53:32.379Z,33.20
2018-03-01T12:55:59.006Z,33.40
2018-03-01T12:58:25.657Z,33.30
2018-03-01T13:00:52.288Z,33.30
2018-03-01T13:03:18.916Z,33.30
2018-03-01T13:05:46.344Z,33.20
2018-03-01T13:08:12.973Z,33.30
2018-03-01T13:10:39.601Z,33.10
2018-03-01T13:13:06.641Z,32.50
2018-03-01T13:15:33.265Z,32.30
2018-03-01T13:17:59.904Z,32.30
2018-03-01T13:20:26.917Z,32.60
2018-03-01T13:22:53.938Z,32.20
2018-03-01T13:25:20.974Z,31.50
2018-03-01T13:27:47.597Z,31.90
2018-03-01T13:30:14.615Z,31.80
2018-03-01T13:32:58.467Z,31.50
2018-03-01T13:35:28.047Z,31.30
2018-03-01T13:37:55.115Z,31.40
2018-03-01T13:40:22.128Z,31.20
2018-03-01T13:42:50.304Z,31.30
2018-03-01T13:45:16.952Z,31.50
2018-03-01T13:47:45.266Z,31.10
2018-03-01T13:50:11.908Z,32.70
2018-03-01T13:52:38.928Z,32.70
2018-03-01T13:55:05.567Z,32.80
2018-03-01T13:57:32.956Z,32.80
2018-03-01T14:00:00.748Z,32.80
2018-03-01T14:02:28.162Z,32.90
2018-03-01T14:04:54.778Z,33.00
2018-03-01T14:07:39.975Z,33.00
2018-03-01T14:10:07.002Z,33.10
2018-03-01T14:12:52.228Z,33.10
2018-03-01T14:15:18.845Z,33.10
2018-03-01T14:17:51.142Z,33.10
2018-03-01T14:20:21.230Z,33.10
2018-03-01T14:22:53.918Z,33.10
2018-03-01T14:25:21.936Z,33.10
2018-03-01T14:28:05.622Z,33.10
2018-03-01T14:30:32.658Z,33.10
2018-03-01T14:32:59.285Z,33.20
2018-03-01T14:35:32.515Z,33.20
2018-03-01T14:37:59.147Z,33.20
2018-03-01T14:40:26.169Z,33.30
2018-03-01T14:42:53.186Z,33.20
2018-03-01T14:47:48.133Z,33.20
2018-03-01T14:50:15.153Z,33.20
2018-03-01T14:52:41.798Z,33.20
2018-03-01T14:55:08.425Z,33.20
2018-03-01T14:57:36.558Z,32.90
2018-03-01T15:00:03.576Z,32.90
2018-03-01T15:02:30.195Z,32.80
2018-03-01T15:04:57.591Z,32.80
2018-03-01T15:07:24.630Z,32.10
2018-03-01T15:09:52.016Z,32.20
2018-03-01T15:12:19.421Z,31.70
2018-03-01T15:23:42.064Z,31.40
2018-03-01T15:26:09.121Z,31.30
2018-03-01T15:28:36.552Z,31.80
2018-03-01T15:31:03.193Z,31.40
2018-03-01T15:33:29.973Z,31.10
2018-03-01T15:35:56.996Z,31.40
2018-03-01T15:38:24.132Z,31.40
2018-03-01T15:40:51.175Z,31.10
2018-03-01T15:43:17.914Z,31.60
2018-03-01T15:45:44.590Z,32.60
2018-03-01T15:56:12.817Z,32.80
2018-03-01T15:58:41.462Z,32.80
2018-03-01T16:01:08.111Z,32.90
2018-03-01T16:03:35.146Z,32.90
2018-03-01T16:06:03.185Z,32.90
2018-03-01T16:08:30.690Z,32.90
2018-03-01T16:10:57.730Z,32.90
2018-03-01T16:13:25.503Z,33.00
2018-03-01T16:15:53.270Z,32.90
2018-03-01T16:18:20.306Z,33.00
2018-03-01T16:20:46.942Z,33.00
2018-03-01T16:23:13.585Z,33.10
2018-03-01T16:25:40.237Z,33.10
2018-03-01T16:28:06.902Z,33.00
2018-03-01T16:30:33.591Z,33.00
2018-03-01T16:33:00.285Z,33.10
2018-03-01T16:35:27.373Z,33.00
2018-03-01T16:37:55.574Z,33.10
2018-03-01T16:42:50.563Z,33.10
2018-03-01T16:45:17.230Z,33.20
2018-03-01T16:47:44.293Z,33.20
2018-03-01T16:50:11.732Z,33.10
2018-03-01T16:52:38.774Z,32.80
2018-03-01T16:55:05.801Z,32.90
2018-03-01T16:57:32.829Z,32.60
2018-03-01T17:00:00.226Z,32.60
2018-03-01T17:02:26.858Z,32.50
2018-03-01T17:04:54.002Z,32.30
2018-03-01T17:07:20.655Z,31.70
2018-03-01T17:09:48.067Z,31.80
2018-03-01T17:12:14.698Z,31.40
2018-03-01T17:14:41.735Z,31.10
2018-03-01T17:19:37.486Z,31.30
2018-03-01T17:22:04.118Z,30.90
2018-03-01T17:24:33.037Z,31.00
2018-03-01T17:27:03.095Z,30.70
2018-03-01T17:29:29.754Z,30.70
2018-03-01T17:31:56.410Z,30.90
2018-03-01T17:34:23.458Z,32.00
2018-03-01T17:36:50.089Z,32.40
2018-03-01T17:39:17.141Z,32.40
2018-03-01T17:41:44.547Z,32.50
2018-03-01T17:44:11.214Z,32.50
2018-03-01T17:46:38.254Z,32.60
2018-03-01T17:49:04.936Z,32.60
2018-03-01T17:51:32.017Z,32.70
2018-03-01T17:57:20.743Z,32.80
2018-03-01T18:02:17.096Z,32.80
2018-03-01T18:04:43.710Z,32.80
2018-03-01T18:07:10.380Z,32.80
2018-03-01T18:10:13.559Z,32.80
2018-03-01T18:12:41.102Z,32.80
2018-03-01T18:15:07.752Z,32.80
2018-03-01T18:17:34.556Z,32.80
2018-03-01T18:20:03.186Z,32.80
2018-03-01T18:22:33.107Z,32.80
2018-03-01T18:25:00.633Z,32.80
2018-03-01T18:32:45.540Z,32.60
2018-03-01T18:35:12.177Z,31.70
2018-03-01T18:37:39.212Z,31.80
2018-03-01T18:40:09.250Z,32.10
2018-03-01T18:42:36.713Z,32.20
2018-03-01T18:45:03.760Z,31.60
2018-03-01T18:47:30.399Z,31.50
2018-03-01T18:49:57.036Z,31.40
2018-03-01T18:52:23.674Z,31.70
2018-03-01T18:54:50.331Z,31.20
2018-03-01T18:57:16.971Z,31.10
2018-03-01T18:59:43.997Z,31.10
2018-03-01T19:02:11.039Z,31.10
2018-03-01T19:04:37.726Z,31.10
2018-03-01T19:07:04.387Z,31.10
2018-03-01T19:09:31.817Z,31.00
2018-03-01T19:11:58.462Z,31.00
2018-03-01T19:14:25.141Z,31.40
2018-03-01T19:16:57.204Z,32.20
2018-03-01T19:19:24.618Z,32.10
2018-03-01T19:21:52.047Z,32.40
2018-03-01T19:24:18.755Z,32.40
2018-03-01T19:26:45.456Z,32.50
2018-03-01T19:29:12.536Z,32.60
2018-03-01T19:31:39.693Z,32.70
2018-03-01T19:34:07.846Z,32.70
2018-03-01T19:36:35.315Z,32.70
2018-03-01T19:39:02.348Z,32.80
2018-03-01T19:41:29.435Z,32.70
2018-03-01T19:43:56.462Z,32.80
2018-03-01T19:46:23.246Z,32.80
2018-03-01T19:48:50.277Z,32.80
2018-03-01T19:51:26.695Z,32.80
2018-03-01T19:53:53.331Z,32.80
2018-03-01T19:56:20.857Z,32.90
2018-03-01T19:58:47.887Z,32.80
2018-03-01T20:01:15.324Z,32.90
2018-03-01T20:03:50.743Z,32.90
2018-03-01T20:18:00.112Z,31.90
2018-03-01T20:20:27.155Z,31.80
2018-03-01T20:22:53.798Z,31.70
2018-03-01T20:25:20.836Z,31.40
2018-03-01T20:27:47.887Z,31.60
2018-03-01T20:30:15.338Z,31.20
2018-03-01T20:32:41.985Z,31.20
2018-03-01T20:35:09.026Z,31.20
2018-03-01T20:37:36.059Z,31.00
2018-03-01T20:40:09.262Z,31.40
2018-03-01T20:42:39.177Z,31.10
2018-03-01T20:45:07.327Z,31.50
2018-03-01T20:47:34.757Z,32.20
2018-03-01T20:50:01.874Z,32.40
2018-03-01T20:52:28.514Z,32.40
2018-03-01T20:54:55.170Z,32.50
2018-03-01T20:57:22.283Z,32.60
2018-03-01T20:59:49.770Z,32.70
2018-03-01T21:02:16.425Z,32.70
2018-03-01T21:04:43.847Z,32.70
2018-03-01T21:07:11.619Z,32.70
2018-03-01T21:09:39.043Z,32.80
2018-03-01T21:12:06.814Z,32.80
2018-03-01T21:14:34.629Z,32.80
2018-03-01T21:17:01.673Z,32.80
2018-03-01T21:19:29.868Z,32.80
2018-03-01T21:21:56.905Z,32.80
2018-03-01T21:24:23.568Z,32.90
2018-03-01T21:26:50.302Z,32.90
2018-03-01T21:29:21.254Z,32.80
2018-03-01T21:31:48.668Z,32.90
2018-03-01T21:34:15.695Z,32.80
2018-03-01T21:36:42.319Z,32.80
2018-03-01T21:39:09.736Z,32.80
2018-03-01T21:44:05.851Z,32.50
2018-03-01T21:46:32.525Z,32.20
2018-03-01T21:49:08.931Z,31.70
2018-03-01T21:51:35.593Z,31.70
2018-03-01T21:54:03.198Z,31.60
2018-03-01T21:56:30.656Z,31.60
2018-03-01T21:58:57.306Z,31.30
2018-03-01T22:01:24.738Z,31.20
2018-03-01T22:03:51.377Z,31.20
2018-03-01T22:06:18.846Z,31.20
2018-03-01T22:08:46.280Z,31.20
2018-03-01T22:11:13.339Z,31.00
2018-03-01T22:13:40.424Z,31.00
2018-03-01T22:16:07.861Z,31.60
2018-03-01T22:18:34.903Z,32.20
2018-03-01T22:23:45.217Z,32.40
2018-03-01T22:26:20.827Z,32.50
2018-03-01T22:28:47.515Z,32.60
2018-03-01T22:31:14.973Z,32.70
2018-03-01T22:33:41.734Z,32.70
2018-03-01T22:36:08.844Z,32.80
2018-03-01T22:38:35.489Z,32.80
2018-03-01T22:41:08.847Z,32.80
2018-03-01T22:43:35.887Z,32.80
2018-03-01T22:46:03.672Z,32.80
2018-03-01T22:48:31.455Z,32.90
2018-03-01T22:50:58.119Z,32.80
2018-03-01T22:53:24.737Z,32.80
2018-03-01T22:55:57.236Z,32.80
2018-03-01T22:58:27.339Z,32.80
2018-03-01T23:00:54.366Z,32.80
2018-03-01T23:03:22.186Z,32.80
2018-03-01T23:05:49.250Z,32.90
2018-03-01T23:08:16.304Z,32.90
2018-03-01T23:15:40.303Z,32.20
2018-03-01T23:18:08.621Z,32.40
2018-03-01T23:20:35.266Z,32.20
2018-03-01T23:23:03.038Z,32.00
2018-03-01T23:25:30.442Z,31.60
2018-03-01T23:27:57.125Z,31.40
2018-03-01T23:30:23.782Z,31.50
2018-03-01T23:32:50.856Z,31.40
2018-03-01T23:35:17.569Z,31.50
2018-03-01T23:37:45.350Z,31.50
2018-03-01T23:40:12.018Z,31.40
2018-03-01T23:42:39.424Z,31.60
2018-03-01T23:45:06.102Z,31.30
2018-03-01T23:47:33.180Z,31.10
2018-03-01T23:49:59.859Z,31.30
2018-03-01T23:52:27.677Z,32.40
2018-03-01T23:54:54.342Z,32.20
2018-03-01T23:57:21.028Z,32.40
2018-03-01T23:59:48.444Z,32.50
